Time;durP1;ratioP1;P1;durP2;ratioP2;P2;SDS_P1;SDS_P2;PMS_P1;PMS_P2;Temp;Humidity;BMP_temperature;BMP_pressure;BME280_temperature;BME280_humidity;BME280_pressure;Samples;Min_cycle;Max_cycle;Signal;HPM_P1;HPM_P2
2022/08/30 00:01:11;;;;;;;8.75;5.57;;;;;;;;;;5068367;28;20017;-69
2022/08/30 00:03:39;;;;;;;11.60;6.55;;;;;;;;;;5056613;28;20387;-70
2022/08/30 00:06:06;;;;;;;8.90;6.05;;;;;;;;;;5063598;28;20028;-70
2022/08/30 00:08:33;;;;;;;7.88;5.50;;;;;;;;;;5067774;28;20119;-69
2022/08/30 00:10:59;;;;;;;9.40;5.57;;;;;;;;;;5067853;28;20040;-69
2022/08/30 00:13:25;;;;;;;12.52;6.75;;;;;;;;;;5058419;28;20021;-70
2022/08/30 00:15:52;;;;;;;8.95;6.10;;;;;;;;;;5068020;28;20119;-70
2022/08/30 00:18:19;;;;;;;10.45;5.95;;;;;;;;;;5067468;28;20058;-70
2022/08/30 00:20:46;;;;;;;8.60;5.82;;;;;;;;;;5070202;28;20016;-70
2022/08/30 00:23:12;;;;;;;11.70;6.28;;;;;;;;;;5056544;28;20017;-69
2022/08/30 00:25:38;;;;;;;9.43;6.38;;;;;;;;;;5059320;28;20372;-69
2022/08/30 00:28:04;;;;;;;7.60;5.95;;;;;;;;;;5066184;28;20016;-69
2022/08/30 00:30:30;;;;;;;10.05;5.97;;;;;;;;;;5072384;28;20021;-70
2022/08/30 00:32:56;;;;;;;9.63;5.90;;;;;;;;;;5056982;28;20376;-70
2022/08/30 00:35:22;;;;;;;15.77;6.55;;;;;;;;;;5057404;28;20437;-70
2022/08/30 00:37:49;;;;;;;9.55;5.97;;;;;;;;;;5065723;28;20390;-70
2022/08/30 00:40:16;;;;;;;10.77;5.88;;;;;;;;;;5068967;28;20111;-70
2022/08/30 00:42:43;;;;;;;10.20;6.43;;;;;;;;;;5058289;28;20413;-70
2022/08/30 00:45:17;;;;;;;11.52;6.00;;;;;;;;;;5060242;28;20029;-69
2022/08/30 00:47:44;;;;;;;13.50;6.68;;;;;;;;;;5065532;28;20020;-69
2022/08/30 00:50:11;;;;;;;9.95;6.25;;;;;;;;;;5070100;28;20124;-69
2022/08/30 00:52:38;;;;;;;7.97;5.95;;;;;;;;;;5058756;28;20046;-69
2022/08/30 00:55:04;;;;;;;8.02;6.15;;;;;;;;;;5068378;28;20502;-69
2022/08/30 00:57:32;;;;;;;8.80;6.20;;;;;;;;;;5067513;28;20020;-70
2022/08/30 00:59:58;;;;;;;8.93;5.80;;;;;;;;;;5071949;28;20016;-70
2022/08/30 01:02:25;;;;;;;6.97;5.25;;;;;;;;;;5058598;28;20053;-70
2022/08/30 01:04:51;;;;;;;8.68;5.80;;;;;;;;;;5060111;28;20021;-70
2022/08/30 01:07:17;;;;;;;8.35;5.68;;;;;;;;;;5061041;28;20075;-69
2022/08/30 01:09:44;;;;;;;11.15;6.85;;;;;;;;;;5077840;22;20411;-74
2022/08/30 01:12:10;;;;;;;10.88;6.32;;;;;;;;;;5051077;28;20051;-74
2022/08/30 01:14:37;;;;;;;9.15;6.05;;;;;;;;;;5051256;28;20025;-73
2022/08/30 01:17:03;;;;;;;10.50;6.40;;;;;;;;;;5051360;28;20020;-73
2022/08/30 01:19:33;;;;;;;11.20;7.05;;;;;;;;;;5042926;28;20072;-73
2022/08/30 01:22:11;;;;;;;11.32;6.95;;;;;;;;;;5041470;28;20017;-74
2022/08/30 01:24:37;;;;;;;9.95;6.80;;;;;;;;;;5041723;28;20138;-73
2022/08/30 01:27:04;;;;;;;10.25;6.05;;;;;;;;;;5041345;28;20031;-74
2022/08/30 01:29:30;;;;;;;12.95;6.47;;;;;;;;;;5036373;28;20432;-75
2022/08/30 01:31:56;;;;;;;13.43;7.95;;;;;;;;;;5042263;28;20113;-76
2022/08/30 01:34:22;;;;;;;11.32;7.22;;;;;;;;;;5033852;28;20498;-74
2022/08/30 01:36:49;;;;;;;10.68;6.32;;;;;;;;;;5040224;28;20025;-75
2022/08/30 01:39:15;;;;;;;12.60;6.60;;;;;;;;;;5036278;28;20045;-75
2022/08/30 01:41:42;;;;;;;9.93;6.47;;;;;;;;;;5040047;28;20471;-75
2022/08/30 01:44:09;;;;;;;10.68;6.35;;;;;;;;;;5044614;28;20413;-74
2022/08/30 01:46:37;;;;;;;11.45;6.88;;;;;;;;;;5042891;28;20051;-74
2022/08/30 01:49:06;;;;;;;10.93;6.68;;;;;;;;;;5037750;28;20017;-74
2022/08/30 01:51:32;;;;;;;10.82;6.18;;;;;;;;;;5038500;28;20032;-74
2022/08/30 01:53:58;;;;;;;10.35;6.38;;;;;;;;;;5045488;28;20501;-74
2022/08/30 01:56:25;;;;;;;12.23;6.65;;;;;;;;;;5040978;28;20029;-74
2022/08/30 01:58:51;;;;;;;15.43;7.25;;;;;;;;;;5050666;28;20112;-75
2022/08/30 02:01:18;;;;;;;11.45;6.60;;;;;;;;;;5036763;28;20013;-75
2022/08/30 02:03:45;;;;;;;14.20;7.15;;;;;;;;;;5047613;28;20084;-75
2022/08/30 02:06:13;;;;;;;15.52;6.78;;;;;;;;;;5039440;28;20037;-75
2022/08/30 02:08:40;;;;;;;15.65;7.32;;;;;;;;;;5035476;28;20044;-74
2022/08/30 02:11:06;;;;;;;12.52;6.70;;;;;;;;;;5036609;28;20395;-74
2022/08/30 02:13:33;;;;;;;10.23;7.53;;;;;;;;;;5046040;28;20060;-75
2022/08/30 02:15:59;;;;;;;16.40;6.63;;;;;;;;;;5041205;28;20033;-74
2022/08/30 02:18:25;;;;;;;10.55;6.20;;;;;;;;;;5037347;28;20045;-74
2022/08/30 02:20:52;;;;;;;12.40;7.07;;;;;;;;;;5036615;28;20049;-74
2022/08/30 02:23:18;;;;;;;12.45;6.82;;;;;;;;;;5050321;28;20441;-74
2022/08/30 02:25:44;;;;;;;11.20;6.80;;;;;;;;;;5047138;28;20092;-74
2022/08/30 02:28:11;;;;;;;10.52;6.55;;;;;;;;;;5039392;28;20060;-74
2022/08/30 02:30:37;;;;;;;10.93;6.85;;;;;;;;;;5053466;28;20021;-74
2022/08/30 02:33:03;;;;;;;15.30;7.72;;;;;;;;;;5054862;28;20021;-74
2022/08/30 02:35:29;;;;;;;9.55;7.10;;;;;;;;;;5048450;28;20065;-74
2022/08/30 02:37:55;;;;;;;10.95;7.05;;;;;;;;;;5045225;28;20079;-74
2022/08/30 02:40:21;;;;;;;11.55;7.05;;;;;;;;;;5053332;28;20380;-74
2022/08/30 02:42:48;;;;;;;10.65;7.85;;;;;;;;;;5050292;28;20013;-75
2022/08/30 02:45:14;;;;;;;11.65;8.05;;;;;;;;;;5048380;28;20048;-76
2022/08/30 02:47:41;;;;;;;10.55;7.75;;;;;;;;;;5046058;28;20040;-75
2022/08/30 02:50:08;;;;;;;11.18;7.40;;;;;;;;;;5035252;28;20399;-75
2022/08/30 02:52:35;;;;;;;12.25;7.28;;;;;;;;;;5047403;28;20036;-75
2022/08/30 02:55:01;;;;;;;12.93;7.10;;;;;;;;;;5047839;28;20057;-75
2022/08/30 02:57:27;;;;;;;11.15;6.78;;;;;;;;;;5047537;28;20025;-75
2022/08/30 02:59:53;;;;;;;11.77;6.57;;;;;;;;;;5039748;28;20010;-75
2022/08/30 03:02:20;;;;;;;60.05;30.15;;;;;;;;;;5047535;28;20044;-75
2022/08/30 03:04:47;;;;;;;555.90;333.08;;;;;;;;;;5045892;28;20032;-75
2022/08/30 03:07:13;;;;;;;102.15;45.05;;;;;;;;;;5045610;28;20368;-75
2022/08/30 03:09:39;;;;;;;124.05;52.13;;;;;;;;;;5036268;28;20128;-75
2022/08/30 03:12:06;;;;;;;421.08;194.40;;;;;;;;;;5046437;28;20025;-76
2022/08/30 03:14:34;;;;;;;375.85;156.27;;;;;;;;;;5049050;28;20021;-76
2022/08/30 03:17:01;;;;;;;89.93;36.25;;;;;;;;;;5045030;28;20021;-75
2022/08/30 03:19:27;;;;;;;289.80;104.63;;;;;;;;;;5037232;28;20458;-75
2022/08/30 03:21:53;;;;;;;296.80;100.78;;;;;;;;;;5042819;28;20013;-75
2022/08/30 03:24:19;;;;;;;127.05;44.47;;;;;;;;;;5046948;28;20029;-74
2022/08/30 03:26:45;;;;;;;52.28;18.67;;;;;;;;;;5042272;28;20036;-74
2022/08/30 03:29:11;;;;;;;19.70;9.57;;;;;;;;;;5037125;28;20021;-74
2022/08/30 03:31:37;;;;;;;15.43;9.13;;;;;;;;;;5041411;28;20498;-75
2022/08/30 03:34:04;;;;;;;89.57;32.10;;;;;;;;;;5048903;28;20034;-75
2022/08/30 03:36:30;;;;;;;60.47;19.80;;;;;;;;;;5040101;28;20443;-74
2022/08/30 03:38:56;;;;;;;41.45;17.05;;;;;;;;;;5039969;28;20034;-74
2022/08/30 03:41:23;;;;;;;20.70;11.27;;;;;;;;;;5039824;28;20508;-74
2022/08/30 03:43:49;;;;;;;27.00;11.27;;;;;;;;;;5050126;28;20025;-74
2022/08/30 03:46:15;;;;;;;16.35;9.40;;;;;;;;;;5042576;28;20541;-74
2022/08/30 03:48:42;;;;;;;14.00;7.93;;;;;;;;;;5041578;28;20029;-74
2022/08/30 03:51:08;;;;;;;10.93;8.23;;;;;;;;;;5035407;28;20526;-75
2022/08/30 03:53:34;;;;;;;12.68;8.57;;;;;;;;;;5041983;28;20033;-75
2022/08/30 03:56:00;;;;;;;11.43;8.27;;;;;;;;;;5040813;28;20053;-74
2022/08/30 03:58:26;;;;;;;13.27;8.57;;;;;;;;;;5052179;28;20463;-74
2022/08/30 04:00:52;;;;;;;13.48;9.00;;;;;;;;;;5038528;28;20097;-75
2022/08/30 04:03:24;;;;;;;11.93;8.55;;;;;;;;;;5048482;28;20017;-75
2022/08/30 04:05:50;;;;;;;13.02;8.15;;;;;;;;;;5046818;28;20074;-75
2022/08/30 04:08:16;;;;;;;14.07;8.13;;;;;;;;;;5044419;28;20061;-74
2022/08/30 04:10:42;;;;;;;19.45;8.48;;;;;;;;;;5033566;28;20119;-74
2022/08/30 04:13:09;;;;;;;14.52;9.27;;;;;;;;;;5049313;28;20016;-75
2022/08/30 04:15:35;;;;;;;11.20;8.32;;;;;;;;;;5046299;28;20145;-75
2022/08/30 04:18:01;;;;;;;15.45;9.00;;;;;;;;;;5037581;28;20090;-74
2022/08/30 04:20:27;;;;;;;12.77;7.85;;;;;;;;;;5033699;28;20028;-75
2022/08/30 04:22:53;;;;;;;12.57;8.45;;;;;;;;;;5047674;28;20032;-75
2022/08/30 04:25:19;;;;;;;11.95;7.95;;;;;;;;;;5046508;28;20024;-76
2022/08/30 04:27:45;;;;;;;10.88;8.40;;;;;;;;;;5039113;28;20026;-77
2022/08/30 04:30:12;;;;;;;14.38;9.02;;;;;;;;;;5033113;28;20113;-75
2022/08/30 04:32:39;;;;;;;14.30;9.02;;;;;;;;;;5045751;28;20057;-76
2022/08/30 04:35:05;;;;;;;12.98;8.50;;;;;;;;;;5036348;28;20170;-76
2022/08/30 04:37:31;;;;;;;15.95;8.75;;;;;;;;;;5048657;28;20088;-76
2022/08/30 04:39:59;;;;;;;13.75;7.60;;;;;;;;;;5034859;28;20057;-76
2022/08/30 04:42:30;;;;;;;10.50;7.47;;;;;;;;;;5045446;28;20025;-76
2022/08/30 04:44:56;;;;;;;9.68;7.30;;;;;;;;;;5044413;28;20032;-74
2022/08/30 04:47:22;;;;;;;11.52;6.82;;;;;;;;;;5047483;28;20044;-74
2022/08/30 04:49:48;;;;;;;13.95;5.35;;;;;;;;;;5043892;28;20017;-75
2022/08/30 04:52:14;;;;;;;9.00;5.55;;;;;;;;;;5045438;28;20104;-75
2022/08/30 04:54:40;;;;;;;8.68;5.13;;;;;;;;;;5047791;28;20583;-75
2022/08/30 04:57:06;;;;;;;9.73;5.28;;;;;;;;;;5047237;28;20021;-76
2022/08/30 04:59:32;;;;;;;11.10;5.63;;;;;;;;;;5031355;28;20029;-75
2022/08/30 05:01:59;;;;;;;10.05;4.78;;;;;;;;;;5043144;28;20078;-75
2022/08/30 05:04:25;;;;;;;6.45;4.35;;;;;;;;;;5042778;28;20025;-74
2022/08/30 05:06:51;;;;;;;5.60;4.32;;;;;;;;;;5041458;28;20040;-75
2022/08/30 05:09:20;;;;;;;5.38;4.28;;;;;;;;;;5036717;28;20056;-75
2022/08/30 05:11:46;;;;;;;6.38;4.15;;;;;;;;;;5041069;28;20024;-74
2022/08/30 05:14:12;;;;;;;16.98;5.07;;;;;;;;;;5045591;28;20025;-75
2022/08/30 05:16:38;;;;;;;8.95;4.50;;;;;;;;;;5038175;28;20025;-77
2022/08/30 05:19:06;;;;;;;6.60;4.57;;;;;;;;;;5040734;28;20566;-75
2022/08/30 05:21:32;;;;;;;5.70;3.92;;;;;;;;;;5039515;28;20021;-75
2022/08/30 05:24:00;;;;;;;11.23;4.72;;;;;;;;;;5037168;28;20427;-76
2022/08/30 05:26:27;;;;;;;8.93;5.15;;;;;;;;;;5038178;28;20245;-74
2022/08/30 05:28:54;;;;;;;6.95;4.18;;;;;;;;;;5049826;28;20021;-76
2022/08/30 05:31:21;;;;;;;5.65;3.53;;;;;;;;;;5037175;28;20113;-75
2022/08/30 05:33:48;;;;;;;8.23;4.03;;;;;;;;;;5044498;28;20029;-76
2022/08/30 05:36:15;;;;;;;4.68;3.60;;;;;;;;;;5043547;28;20560;-75
2022/08/30 05:38:41;;;;;;;8.43;4.15;;;;;;;;;;5035452;28;20022;-75
2022/08/30 05:41:08;;;;;;;6.93;4.00;;;;;;;;;;5036771;28;20013;-75
2022/08/30 05:43:35;;;;;;;8.20;3.70;;;;;;;;;;5051341;28;20489;-75
2022/08/30 05:46:05;;;;;;;5.95;3.67;;;;;;;;;;5041005;28;20107;-75
2022/08/30 05:48:32;;;;;;;8.77;4.47;;;;;;;;;;5035970;28;20230;-75
2022/08/30 05:51:02;;;;;;;7.53;3.90;;;;;;;;;;5034296;28;20033;-74
2022/08/30 05:53:28;;;;;;;6.28;3.88;;;;;;;;;;5047366;28;20020;-74
2022/08/30 05:55:54;;;;;;;8.68;4.15;;;;;;;;;;5047765;28;20079;-76
2022/08/30 05:58:20;;;;;;;4.20;3.00;;;;;;;;;;5040542;28;20483;-76
2022/08/30 06:00:46;;;;;;;6.32;4.40;;;;;;;;;;5035376;28;20037;-75
2022/08/30 06:03:12;;;;;;;5.40;4.18;;;;;;;;;;5047414;28;20063;-74
2022/08/30 06:05:38;;;;;;;8.85;4.38;;;;;;;;;;5042462;28;20013;-75
2022/08/30 06:08:04;;;;;;;7.10;3.70;;;;;;;;;;5035529;28;20026;-75
2022/08/30 06:10:30;;;;;;;5.35;3.92;;;;;;;;;;5033407;28;20025;-75
2022/08/30 06:12:57;;;;;;;7.25;4.18;;;;;;;;;;5046629;28;20391;-74
2022/08/30 06:15:23;;;;;;;9.20;4.25;;;;;;;;;;5044740;28;20021;-74
2022/08/30 06:17:49;;;;;;;6.50;4.18;;;;;;;;;;5036415;28;20025;-75
2022/08/30 06:20:17;;;;;;;8.90;4.57;;;;;;;;;;5036523;28;20396;-74
2022/08/30 06:22:43;;;;;;;9.63;5.00;;;;;;;;;;5044496;28;20017;-74
2022/08/30 06:25:10;;;;;;;9.75;4.35;;;;;;;;;;5044804;28;20025;-77
2022/08/30 06:27:36;;;;;;;10.30;4.35;;;;;;;;;;5039200;28;20025;-76
2022/08/30 06:30:02;;;;;;;10.35;4.28;;;;;;;;;;5031627;28;20033;-77
2022/08/30 06:32:28;;;;;;;6.00;4.43;;;;;;;;;;5046375;28;20425;-75
2022/08/30 06:34:54;;;;;;;6.35;4.00;;;;;;;;;;5043417;28;20049;-75
2022/08/30 06:37:20;;;;;;;9.95;4.55;;;;;;;;;;5040464;28;20017;-74
2022/08/30 06:39:46;;;;;;;7.13;4.25;;;;;;;;;;5040019;28;20505;-75
2022/08/30 06:42:12;;;;;;;9.90;4.57;;;;;;;;;;5050671;28;20029;-74
2022/08/30 06:44:38;;;;;;;7.22;4.40;;;;;;;;;;5040612;28;20022;-76
2022/08/30 06:47:04;;;;;;;10.35;3.90;;;;;;;;;;5028114;28;20399;-76
2022/08/30 06:49:30;;;;;;;11.63;4.38;;;;;;;;;;5029881;28;20100;-77
2022/08/30 06:51:56;;;;;;;6.45;4.50;;;;;;;;;;5029948;28;20029;-76
2022/08/30 06:54:22;;;;;;;11.05;4.47;;;;;;;;;;5044731;28;20037;-76
2022/08/30 06:56:48;;;;;;;11.55;4.00;;;;;;;;;;5029367;28;20022;-76
2022/08/30 06:59:22;;;;;;;7.38;4.57;;;;;;;;;;5036068;28;20029;-76
2022/08/30 07:01:48;;;;;;;7.15;3.60;;;;;;;;;;5029921;28;20021;-76
2022/08/30 07:04:14;;;;;;;6.55;3.88;;;;;;;;;;5029772;28;20547;-78
2022/08/30 07:06:44;;;;;;;8.55;4.15;;;;;;;;;;5031736;28;20037;-77
2022/08/30 07:09:18;;;;;;;8.25;3.70;;;;;;;;;;5048470;22;20116;-77
2022/08/30 07:11:47;;;;;;;6.95;3.90;;;;;;;;;;5033653;28;20064;-76
2022/08/30 07:14:20;;;;;;;7.65;4.05;;;;;;;;;;5037943;28;20111;-77
2022/08/30 07:19:41;;;;;;;5.95;3.63;;;;;;;;;;5042429;28;20411;-75
2022/08/30 07:22:07;;;;;;;7.32;3.70;;;;;;;;;;5068633;22;20059;-72
2022/08/30 07:24:33;;;;;;;8.25;3.80;;;;;;;;;;5071898;28;20114;-72
2022/08/30 07:26:59;;;;;;;4.88;3.33;;;;;;;;;;5073749;28;20039;-69
2022/08/30 07:29:25;;;;;;;7.07;3.63;;;;;;;;;;5063075;28;20390;-71
2022/08/30 07:31:51;;;;;;;9.77;4.10;;;;;;;;;;5063305;28;20020;-72
2022/08/30 07:34:17;;;;;;;10.23;4.18;;;;;;;;;;5071685;28;20052;-72
2022/08/30 07:36:44;;;;;;;6.47;4.10;;;;;;;;;;5070742;28;20028;-71
2022/08/30 07:39:10;;;;;;;7.78;3.95;;;;;;;;;;5069149;28;20067;-72
2022/08/30 07:41:39;;;;;;;7.35;4.15;;;;;;;;;;5070573;28;20394;-72
2022/08/30 07:44:08;;;;;;;8.50;4.10;;;;;;;;;;5064784;28;20021;-71
2022/08/30 07:46:35;;;;;;;12.00;4.03;;;;;;;;;;5071639;28;20024;-74
2022/08/30 07:49:01;;;;;;;10.38;4.03;;;;;;;;;;5072421;28;20020;-72
2022/08/30 07:51:28;;;;;;;11.55;4.40;;;;;;;;;;5072584;28;20028;-72
2022/08/30 07:53:54;;;;;;;5.05;4.05;;;;;;;;;;5067053;28;20024;-73
2022/08/30 07:56:20;;;;;;;10.65;4.43;;;;;;;;;;5072136;28;20042;-71
2022/08/30 07:58:47;;;;;;;8.35;4.35;;;;;;;;;;5073121;28;20027;-73
2022/08/30 08:01:13;;;;;;;10.27;4.43;;;;;;;;;;5065421;28;20028;-73
2022/08/30 08:03:40;;;;;;;4.85;3.08;;;;;;;;;;5073452;28;20049;-73
2022/08/30 08:06:08;;;;;;;9.45;4.47;;;;;;;;;;5070983;28;20048;-71
2022/08/30 08:08:34;;;;;;;6.50;3.40;;;;;;;;;;5062811;28;20112;-72
2022/08/30 08:11:08;;;;;;;6.75;2.92;;;;;;;;;;5073209;28;20020;-72
2022/08/30 08:13:35;;;;;;;8.77;4.25;;;;;;;;;;5072936;28;20024;-73
2022/08/30 08:16:01;;;;;;;13.45;4.40;;;;;;;;;;5072788;28;20028;-71
2022/08/30 08:18:27;;;;;;;5.68;3.42;;;;;;;;;;5072383;28;20020;-71
2022/08/30 08:20:53;;;;;;;6.25;3.08;;;;;;;;;;5072504;28;20027;-71
2022/08/30 08:23:20;;;;;;;4.30;3.13;;;;;;;;;;5072771;28;20035;-71
2022/08/30 08:25:46;;;;;;;7.18;3.92;;;;;;;;;;5072429;28;20044;-71
2022/08/30 08:28:12;;;;;;;6.15;3.22;;;;;;;;;;5072367;28;20044;-71
2022/08/30 08:30:39;;;;;;;5.90;3.88;;;;;;;;;;5072296;28;20024;-71
2022/08/30 08:33:05;;;;;;;6.45;4.22;;;;;;;;;;5068548;28;20139;-72
2022/08/30 08:35:32;;;;;;;5.80;3.60;;;;;;;;;;5065815;28;20099;-72
2022/08/30 08:37:58;;;;;;;6.18;3.17;;;;;;;;;;5070675;28;20051;-72
2022/08/30 08:40:25;;;;;;;6.28;3.15;;;;;;;;;;5072709;28;20360;-72
2022/08/30 08:42:51;;;;;;;5.53;3.38;;;;;;;;;;5070887;28;20031;-73
2022/08/30 08:45:23;;;;;;;7.05;3.33;;;;;;;;;;5072000;28;20016;-72
2022/08/30 08:47:58;;;;;;;6.22;3.17;;;;;;;;;;5070383;28;20056;-72
2022/08/30 08:50:25;;;;;;;4.85;3.10;;;;;;;;;;5072159;28;20027;-72
2022/08/30 08:55:48;;;;;;;5.10;2.95;;;;;;;;;;5070580;28;20040;-72
2022/08/30 08:58:25;;;;;;;4.90;2.65;;;;;;;;;;5070664;28;20082;-72
2022/08/30 09:00:51;;;;;;;3.88;2.85;;;;;;;;;;5068313;28;20043;-72
2022/08/30 09:03:20;;;;;;;5.47;2.78;;;;;;;;;;5070752;28;20020;-71
2022/08/30 09:05:46;;;;;;;3.97;2.58;;;;;;;;;;5071028;28;20024;-71
2022/08/30 09:08:14;;;;;;;4.70;2.78;;;;;;;;;;5071068;28;20127;-71
2022/08/30 09:10:41;;;;;;;7.03;3.63;;;;;;;;;;5071513;28;20485;-70
2022/08/30 09:13:07;;;;;;;7.75;3.55;;;;;;;;;;5071697;28;20025;-72
2022/08/30 09:15:34;;;;;;;6.50;3.25;;;;;;;;;;5070110;28;20481;-72
2022/08/30 09:18:02;;;;;;;4.38;2.80;;;;;;;;;;5063602;28;20016;-72
2022/08/30 09:20:29;;;;;;;4.78;3.25;;;;;;;;;;5072109;28;20099;-72
2022/08/30 09:22:56;;;;;;;3.55;2.70;;;;;;;;;;5070193;28;20032;-72
2022/08/30 09:25:29;;;;;;;3.60;2.80;;;;;;;;;;5071982;28;20016;-72
2022/08/30 09:28:08;;;;;;;5.63;3.47;;;;;;;;;;5070959;28;20090;-72
2022/08/30 09:30:34;;;;;;;5.35;3.30;;;;;;;;;;5071086;28;20021;-72
2022/08/30 09:33:00;;;;;;;6.05;3.17;;;;;;;;;;5055816;28;20074;-72
2022/08/30 09:35:34;;;;;;;4.47;3.03;;;;;;;;;;5070710;28;20028;-73
2022/08/30 09:38:21;;;;;;;5.10;3.00;;;;;;;;;;5068332;28;20447;-72
2022/08/30 09:40:48;;;;;;;5.55;3.25;;;;;;;;;;5071123;28;20020;-73
2022/08/30 09:43:17;;;;;;;6.00;2.95;;;;;;;;;;5071199;28;20021;-74
2022/08/30 09:45:46;;;;;;;4.75;3.45;;;;;;;;;;5070533;28;20051;-73
2022/08/30 09:48:27;;;;;;;5.45;3.00;;;;;;;;;;5069352;28;20042;-73
2022/08/30 09:51:04;;;;;;;4.10;3.05;;;;;;;;;;5069125;28;20021;-73
2022/08/30 09:53:33;;;;;;;4.32;2.90;;;;;;;;;;5069384;28;20086;-72
2022/08/30 09:56:26;;;;;;;4.07;2.72;;;;;;;;;;5069471;28;20032;-73
2022/08/30 09:59:05;;;;;;;7.53;3.22;;;;;;;;;;5067382;28;20067;-73
2022/08/30 10:01:34;;;;;;;6.10;3.83;;;;;;;;;;5058388;28;20043;-72
2022/08/30 10:04:19;;;;;;;5.15;3.75;;;;;;;;;;5068370;28;20254;-73
2022/08/30 10:06:49;;;;;;;7.97;3.88;;;;;;;;;;5060588;28;20494;-74
2022/08/30 10:09:35;;;;;;;6.40;3.72;;;;;;;;;;5069724;28;20043;-74
2022/08/30 10:12:01;;;;;;;6.03;3.40;;;;;;;;;;5070830;28;20028;-72
2022/08/30 10:14:44;;;;;;;5.85;3.45;;;;;;;;;;5070786;28;20081;-75
2022/08/30 10:17:19;;;;;;;8.98;4.18;;;;;;;;;;5070741;28;20108;-75
2022/08/30 10:19:57;;;;;;;5.13;3.35;;;;;;;;;;5070850;28;20024;-74
2022/08/30 10:22:41;;;;;;;5.35;3.47;;;;;;;;;;5070672;28;20064;-74
2022/08/30 10:25:16;;;;;;;8.45;2.92;;;;;;;;;;5071341;28;20267;-74
2022/08/30 10:27:49;;;;;;;8.45;3.78;;;;;;;;;;5070662;28;20371;-74
2022/08/30 10:30:16;;;;;;;5.68;3.42;;;;;;;;;;5069521;28;20025;-75
2022/08/30 10:32:52;;;;;;;3.85;3.22;;;;;;;;;;5067916;28;20689;-73
2022/08/30 10:35:23;;;;;;;9.05;3.40;;;;;;;;;;5066826;28;20040;-74
2022/08/30 10:37:51;;;;;;;3.75;2.95;;;;;;;;;;5069484;28;20109;-73
2022/08/30 10:43:16;;;;;;;8.52;4.15;;;;;;;;;;5072159;28;20055;-75
2022/08/30 10:45:44;;;;;;;6.15;3.30;;;;;;;;;;5073823;28;20044;-75
2022/08/30 10:48:16;;;;;;;4.40;3.25;;;;;;;;;;5073759;28;20044;-73
2022/08/30 10:50:45;;;;;;;3.88;3.40;;;;;;;;;;5072743;28;20028;-74
2022/08/30 10:53:14;;;;;;;6.57;3.28;;;;;;;;;;5072980;28;20075;-74
2022/08/30 10:55:49;;;;;;;5.85;3.30;;;;;;;;;;5072717;28;20060;-73
2022/08/30 10:58:17;;;;;;;3.97;2.83;;;;;;;;;;5074652;28;20494;-74
2022/08/30 11:00:45;;;;;;;7.05;3.03;;;;;;;;;;5074265;28;20025;-73
2022/08/30 11:03:36;;;;;;;4.15;2.97;;;;;;;;;;5074179;28;20039;-74
2022/08/30 11:06:09;;;;;;;5.63;3.25;;;;;;;;;;5074631;28;20036;-74
2022/08/30 11:08:48;;;;;;;6.65;2.90;;;;;;;;;;5073982;28;20039;-73
2022/08/30 11:11:26;;;;;;;6.03;3.03;;;;;;;;;;5073922;28;20029;-74
2022/08/30 11:13:53;;;;;;;3.53;2.85;;;;;;;;;;5074021;28;20028;-73
2022/08/30 11:16:32;;;;;;;3.75;3.10;;;;;;;;;;5073794;28;20036;-72
2022/08/30 11:18:59;;;;;;;6.80;2.90;;;;;;;;;;5073553;28;20039;-74
2022/08/30 11:21:32;;;;;;;8.40;3.15;;;;;;;;;;5073788;28;20029;-74
2022/08/30 11:24:03;;;;;;;5.38;3.00;;;;;;;;;;5073871;28;20394;-74
2022/08/30 11:26:44;;;;;;;5.40;2.35;;;;;;;;;;5073958;28;20045;-73
2022/08/30 11:29:10;;;;;;;;;;;;;;;;;;5073786;28;20025;-74
2022/08/30 11:31:38;;;;;;;5.90;2.50;;;;;;;;;;5073964;28;20294;-73
2022/08/30 11:34:05;;;;;;;4.07;2.60;;;;;;;;;;5073807;28;20024;-74
2022/08/30 11:36:31;;;;;;;4.10;2.33;;;;;;;;;;5074276;28;20016;-74
2022/08/30 11:38:57;;;;;;;6.88;2.70;;;;;;;;;;5072379;28;20051;-74
2022/08/30 11:41:29;;;;;;;4.75;2.42;;;;;;;;;;5074056;28;20132;-74
2022/08/30 11:43:56;;;;;;;4.35;2.75;;;;;;;;;;5074125;28;20111;-74
2022/08/30 11:46:28;;;;;;;5.50;2.50;;;;;;;;;;5072868;28;20016;-74
2022/08/30 11:49:04;;;;;;;5.13;2.60;;;;;;;;;;5073624;28;20398;-74
2022/08/30 11:51:33;;;;;;;4.32;2.58;;;;;;;;;;5060248;28;20024;-74
2022/08/30 11:54:02;;;;;;;2.90;2.20;;;;;;;;;;5072758;28;20406;-74
2022/08/30 11:56:32;;;;;;;7.57;2.58;;;;;;;;;;5073349;28;20078;-74
2022/08/30 11:59:04;;;;;;;5.05;1.98;;;;;;;;;;5072996;28;20482;-73
2022/08/30 12:01:30;;;;;;;;;;;;;;;;;;5073848;28;20494;-73
2022/08/30 12:03:58;;;;;;;3.95;2.28;;;;;;;;;;5073385;28;19904;-73
2022/08/30 12:06:39;;;;;;;3.42;2.40;;;;;;;;;;5073461;28;20024;-73
2022/08/30 12:09:06;;;;;;;5.38;2.85;;;;;;;;;;5073246;28;20020;-72
2022/08/30 12:11:32;;;;;;;2.92;2.63;;;;;;;;;;5073328;28;20509;-73
2022/08/30 12:13:59;;;;;;;2.90;2.33;;;;;;;;;;5073054;28;20060;-73
2022/08/30 12:16:28;;;;;;;6.18;2.90;;;;;;;;;;5073364;28;20052;-74
2022/08/30 12:19:00;;;;;;;4.00;2.47;;;;;;;;;;5072794;28;20063;-74
2022/08/30 12:21:28;;;;;;;3.28;2.47;;;;;;;;;;5073262;28;20051;-74
2022/08/30 12:24:13;;;;;;;6.40;2.30;;;;;;;;;;5073056;28;20024;-73
2022/08/30 12:26:41;;;;;;;7.97;2.88;;;;;;;;;;5072917;28;20025;-74
2022/08/30 12:29:10;;;;;;;2.67;2.47;;;;;;;;;;5072605;28;20055;-75
2022/08/30 12:31:41;;;;;;;3.08;2.50;;;;;;;;;;5072686;28;20026;-74
2022/08/30 12:34:08;;;;;;;2.50;2.13;;;;;;;;;;5072982;28;20020;-75
2022/08/30 12:36:34;;;;;;;4.20;2.20;;;;;;;;;;5072932;28;20041;-75
2022/08/30 12:39:07;;;;;;;4.75;2.33;;;;;;;;;;5072855;28;20139;-75
2022/08/30 12:41:33;;;;;;;3.72;2.03;;;;;;;;;;5072805;28;20020;-74
2022/08/30 12:43:59;;;;;;;6.45;3.20;;;;;;;;;;5072516;28;20108;-73
2022/08/30 12:46:26;;;;;;;6.07;3.55;;;;;;;;;;5072673;28;20440;-74
2022/08/30 12:48:52;;;;;;;5.22;3.15;;;;;;;;;;5072736;28;20077;-74
2022/08/30 12:51:29;;;;;;;15.43;3.97;;;;;;;;;;5072743;28;20083;-73
2022/08/30 12:54:02;;;;;;;5.57;3.40;;;;;;;;;;5071829;28;20024;-73
2022/08/30 12:56:44;;;;;;;4.47;3.45;;;;;;;;;;5072046;28;20498;-73
2022/08/30 12:59:10;;;;;;;3.90;3.47;;;;;;;;;;5071385;28;20032;-74
2022/08/30 13:01:37;;;;;;;5.28;3.33;;;;;;;;;;5072187;28;20390;-73
2022/08/30 13:04:18;;;;;;;4.97;3.40;;;;;;;;;;5070795;28;20497;-73
2022/08/30 13:06:51;;;;;;;7.75;3.92;;;;;;;;;;5070721;28;20525;-73
2022/08/30 13:09:22;;;;;;;6.25;3.33;;;;;;;;;;5071571;28;20025;-74
2022/08/30 13:11:48;;;;;;;;;;;;;;;;;;5072390;28;20473;-73
2022/08/30 13:14:33;;;;;;;4.00;3.22;;;;;;;;;;5072078;28;19965;-73
2022/08/30 13:17:25;;;;;;;6.28;3.70;;;;;;;;;;5071674;28;20439;-73
2022/08/30 13:20:05;;;;;;;5.72;3.35;;;;;;;;;;5065433;28;20515;-74
2022/08/30 13:22:34;;;;;;;4.93;3.53;;;;;;;;;;5077423;22;20037;-74
2022/08/30 13:25:00;;;;;;;8.05;3.42;;;;;;;;;;5051326;28;20033;-72
2022/08/30 13:27:27;;;;;;;4.68;3.28;;;;;;;;;;5049978;28;20207;-70
2022/08/30 13:30:06;;;;;;;5.82;2.88;;;;;;;;;;5052311;28;20032;-72
2022/08/30 13:32:36;;;;;;;3.53;2.92;;;;;;;;;;5049881;28;20078;-72
2022/08/30 13:35:02;;;;;;;7.22;3.15;;;;;;;;;;5039710;28;20033;-72
2022/08/30 13:37:28;;;;;;;4.90;2.97;;;;;;;;;;5048264;28;20086;-72
2022/08/30 13:39:55;;;;;;;5.80;3.05;;;;;;;;;;5031614;28;20527;-72
2022/08/30 13:42:21;;;;;;;5.53;2.72;;;;;;;;;;5031757;28;20025;-72
2022/08/30 13:44:47;;;;;;;11.27;3.92;;;;;;;;;;5032189;28;20028;-72
2022/08/30 13:47:14;;;;;;;5.50;3.08;;;;;;;;;;5045045;28;20486;-72
2022/08/30 13:49:42;;;;;;;4.35;2.80;;;;;;;;;;5039176;28;20113;-73
2022/08/30 13:52:09;;;;;;;4.32;3.08;;;;;;;;;;5046994;28;20025;-71
2022/08/30 13:54:35;;;;;;;7.72;3.30;;;;;;;;;;5044675;28;20080;-72
2022/08/30 13:57:01;;;;;;;3.42;2.88;;;;;;;;;;5043194;28;20433;-72
2022/08/30 13:59:28;;;;;;;3.00;2.45;;;;;;;;;;5038052;28;20041;-72
2022/08/30 14:01:55;;;;;;;3.38;3.00;;;;;;;;;;5031639;28;20043;-71
2022/08/30 14:04:21;;;;;;;6.82;2.97;;;;;;;;;;5047131;28;20033;-72
2022/08/30 14:06:47;;;;;;;4.05;3.10;;;;;;;;;;5041101;28;20120;-71
2022/08/30 14:09:13;;;;;;;4.53;2.60;;;;;;;;;;5030858;28;20113;-71
2022/08/30 14:11:40;;;;;;;5.60;2.92;;;;;;;;;;5038365;28;20035;-73
2022/08/30 14:14:06;;;;;;;3.40;2.55;;;;;;;;;;5034616;28;20018;-72
2022/08/30 14:16:32;;;;;;;2.97;2.53;;;;;;;;;;5044920;28;20127;-72
2022/08/30 14:18:59;;;;;;;3.03;2.45;;;;;;;;;;5048425;28;20070;-71
2022/08/30 14:21:25;;;;;;;4.88;2.88;;;;;;;;;;5036998;28;20075;-69
2022/08/30 14:23:52;;;;;;;3.30;3.00;;;;;;;;;;5037430;28;20048;-73
2022/08/30 14:26:20;;;;;;;4.38;2.75;;;;;;;;;;5037099;28;20029;-73
2022/08/30 14:28:47;;;;;;;4.38;3.08;;;;;;;;;;5049795;28;20089;-72
2022/08/30 14:31:14;;;;;;;4.10;2.55;;;;;;;;;;5036786;28;20458;-71
2022/08/30 14:33:41;;;;;;;4.55;3.03;;;;;;;;;;5035120;28;20028;-74
2022/08/30 14:36:07;;;;;;;4.43;2.53;;;;;;;;;;5035077;28;20024;-71
2022/08/30 14:38:33;;;;;;;5.05;2.50;;;;;;;;;;5036562;28;20025;-72
2022/08/30 14:40:59;;;;;;;6.10;3.28;;;;;;;;;;5037411;28;20025;-72
2022/08/30 14:43:28;;;;;;;6.72;2.78;;;;;;;;;;5037234;28;20025;-72
2022/08/30 14:45:56;;;;;;;4.57;3.00;;;;;;;;;;5037124;28;20036;-72
2022/08/30 14:48:23;;;;;;;6.43;3.22;;;;;;;;;;5037065;28;20032;-69
2022/08/30 14:50:48;;;;;;;7.68;3.13;;;;;;;;;;5049463;28;20067;-73
2022/08/30 14:53:14;;;;;;;3.47;2.35;;;;;;;;;;5037352;28;20167;-73